YHS weather

Sechelt-Gibsons Airport
Sechelt, British Columbia, Canada

Public forecast

Using degrees Celsius for public forecast. Weather courtesy of forecast.io.

METAR (pilot weather report)

Closest report is Nanaimo Airport, 25.1 nm (46.4 km) SSW. Retrieved 2019/07/17 22:00 UTC (1 minute ago):

CYCD 172200Z VRB05KT 25SM SCT050 BKN081 23/12 A2977 RMK SC4AC2 SLP081 DENSITY ALT 1300FT

TAF (pilot weather forecast)

Closest forecast is Nanaimo Airport, 25.1 nm (46.4 km) SSW. Retrieved 2019/07/17 18:00 UTC (4 hours ago):

TAF CYCD 171738Z 1718/1804 14008KT P6SM SCT040 BKN100 TEMPO 1718/1721 P6SM -SHRA BKN040 OVC100 FM172100 20010KT P6SM SCT050 BKN120 RMK NXT FCST BY 180000Z